• Join FlightAware (Why Join?)
  • Login
  • US Flag 
01:55PM EDT


 

Airport Tracker/Info


-or-


 

Live Flight TrackerFlight Track Log ✈ GJS3618 ✈ 14-Apr-2013 ✈ KMSN - KORD

Flight Track Log - Related Links

Times and Time Zones

All times are in EDT time to prevent confusion due to time zone crossing. See the GJS3618 flight status page for this flight to view local times or setup timezone preferences in your user account.

Time Position Orientation Groundspeed Altitude Reporting Facility
EDT Latitude Longitude Course Direction KTS MPH feet Rate Location/Type
08:03AM 43.0725 -89.3286 164° South 208 239 4,100  Level Chicago Center
08:04AM 43.0086 -89.3036 164° South 223 257 6,900 2,340 Climbing Chicago Center
08:05AM 42.9408 -89.2725 161° South 247 284 8,900 1,800 Climbing Chicago Center
08:06AM 42.8664 -89.2406 163° South 273 314 10,700 1,020 Climbing Chicago Center
08:07AM 42.7272 -89.1742 164° South  Level FlightAware Approximate
08:07AM 42.7664 -89.1981 163° South 316 364 11,000  Level Chicago Center
08:08AM 42.6524 -89.1442 164° South  Level FlightAware Approximate
08:08AM 42.6825 -89.1592 161° South 320 368 11,000  Level Chicago Center
08:09AM 42.5994 -89.1242 163° South 315 362 11,000  Level Chicago Center
08:10AM 42.5386 -89.0439 136° Southeast 329 379 11,000 -120 Level Chicago Center
08:11AM 42.5022 -88.9225 112° Southeast 345 397 10,800 -540 Descending Chicago Center
08:12AM 42.4658 -88.8025 112° Southeast 346 398 10,000 -480 Descending Chicago Center
08:13AM 42.4308 -88.6861 112° Southeast 339 390 9,900 -480 Descending Chicago Center
08:14AM 42.3950 -88.5778 114° Southeast 326 375 9,100 -480 Descending Chicago Center
08:15AM 42.3494 -88.4786 122° Southeast 315 362 9,000 -420 Descending Chicago Center
08:16AM 42.3014 -88.3625 119° Southeast 316 364 8,300 -720 Descending Chicago Center
08:17AM 42.2583 -88.2617 120° Southeast 312 359 7,600 -780 Descending Chicago Center
08:18AM 42.2131 -88.1808 127° Southeast 283 326 6,800 -1,200 Descending Chicago Center
08:19AM 42.1617 -88.1283 143° Southeast 239 275 5,200 -1,320 Descending Chicago Center
08:20AM 42.1167 -88.0833 143° Southeast 156 180 4,200 -900 Descending Chicago TRACON
08:21AM 42.1000 -88.0500 124° Southeast 147 169 3,400 -840 Descending Chicago TRACON
08:22AM 42.0667 -88.0167 143° Southeast 130 150 2,600 -840 Descending Chicago TRACON